Time;durP1;ratioP1;P1;durP2;ratioP2;P2;SDS_P1;SDS_P2;PMS_P1;PMS_P2;Temp;Humidity;BMP_temperature;BMP_pressure;BME280_temperature;BME280_humidity;BME280_pressure;Samples;Min_cycle;Max_cycle;Signal;HPM_P1;HPM_P2
2021/05/03 00:01:55;;;;;;;4.90;1.92;;;4.70;99.90;;;;;;10408202;28;20445;-60
2021/05/03 00:06:57;;;;;;;2.38;1.55;;;4.60;99.90;;;;;;10410216;28;20075;-60
2021/05/03 00:11:58;;;;;;;2.88;1.77;;;4.60;99.90;;;;;;10412134;28;20442;-60
2021/05/03 00:16:59;;;;;;;3.40;1.67;;;4.40;99.90;;;;;;10409615;28;20111;-60
2021/05/03 00:22:00;;;;;;;2.75;1.98;;;4.40;99.90;;;;;;10406403;28;20033;-60
2021/05/03 00:27:02;;;;;;;5.85;2.10;;;4.40;99.90;;;;;;10406497;28;20045;-60
2021/05/03 00:32:03;;;;;;;4.22;2.60;;;4.30;99.90;;;;;;10411097;28;23914;-60
2021/05/03 00:37:04;;;;;;;3.20;2.65;;;4.30;99.90;;;;;;10406431;28;20041;-60
2021/05/03 00:42:06;;;;;;;3.17;2.88;;;4.20;99.90;;;;;;10410218;28;20087;-60
2021/05/03 00:47:08;;;;;;;5.65;2.72;;;4.10;99.90;;;;;;10406566;28;20131;-60
2021/05/03 00:52:11;;;;;;;4.85;3.03;;;4.10;99.90;;;;;;10409493;28;20071;-59
2021/05/03 00:57:13;;;;;;;4.20;2.33;;;4.00;99.90;;;;;;10405199;28;20132;-61
2021/05/03 01:02:15;;;;;;;2.88;2.22;;;4.00;99.90;;;;;;10403096;28;20056;-59
2021/05/03 01:07:16;;;;;;;4.25;2.13;;;4.00;99.90;;;;;;10406442;28;20633;-59
2021/05/03 01:12:17;;;;;;;2.35;1.15;;;4.00;99.90;;;;;;10406809;28;20103;-60
2021/05/03 01:17:28;;;;;;;2.08;1.38;;;4.00;99.90;;;;;;10410142;28;20115;-59
2021/05/03 01:22:33;;;;;;;6.18;1.67;;;4.00;99.90;;;;;;10409097;28;20053;-60
2021/05/03 01:27:35;;;;;;;4.15;2.22;;;4.00;99.90;;;;;;10407432;28;20469;-59
2021/05/03 01:32:37;;;;;;;4.53;2.15;;;4.00;99.90;;;;;;10406697;28;20037;-59
2021/05/03 01:37:38;;;;;;;2.95;1.98;;;3.90;99.90;;;;;;10404619;28;20065;-60
2021/05/03 01:42:39;;;;;;;2.83;1.65;;;3.90;99.90;;;;;;10405089;28;20077;-59
2021/05/03 01:47:41;;;;;;;2.70;1.85;;;3.80;99.90;;;;;;10405793;28;20120;-60
2021/05/03 01:52:42;;;;;;;5.00;2.28;;;3.80;99.90;;;;;;10407106;28;20128;-60
2021/05/03 01:57:45;;;;;;;2.58;2.20;;;3.80;99.90;;;;;;10399100;28;20053;-59
2021/05/03 02:02:48;;;;;;;9.18;5.55;;;3.70;99.90;;;;;;10374621;28;20053;-59
2021/05/03 02:07:58;;;;;;;18.88;9.93;;;3.70;99.90;;;;;;10408370;28;20053;-59
2021/05/03 02:13:00;;;;;;;7.85;5.35;;;3.60;99.90;;;;;;10403681;28;20053;-59
2021/05/03 02:18:02;;;;;;;8.02;4.78;;;3.60;99.90;;;;;;10410327;28;20040;-59
2021/05/03 02:23:03;;;;;;;7.82;3.85;;;3.60;99.90;;;;;;10409346;28;23736;-59
2021/05/03 02:28:05;;;;;;;8.27;3.80;;;3.50;99.90;;;;;;10403477;28;20056;-59
2021/05/03 02:33:06;;;;;;;4.43;3.63;;;3.40;99.90;;;;;;10401641;28;20065;-60
2021/05/03 02:38:09;;;;;;;4.47;2.88;;;3.50;99.90;;;;;;10408001;28;20049;-59
2021/05/03 02:43:10;;;;;;;6.32;3.75;;;3.40;99.90;;;;;;10402899;28;20806;-59
2021/05/03 02:48:11;;;;;;;10.10;4.18;;;3.40;99.90;;;;;;10407588;28;20057;-60
2021/05/03 02:53:12;;;;;;;6.22;2.92;;;3.30;99.90;;;;;;10408754;28;20138;-60
2021/05/03 02:58:14;;;;;;;7.20;3.53;;;3.30;99.90;;;;;;10413860;28;20048;-60
2021/05/03 03:03:15;;;;;;;5.35;3.35;;;3.20;99.90;;;;;;10407613;28;20041;-60
2021/05/03 03:08:16;;;;;;;7.05;3.22;;;3.10;99.90;;;;;;10411949;28;20049;-60
2021/05/03 03:13:17;;;;;;;7.20;3.78;;;3.10;99.90;;;;;;10408999;28;20056;-59
2021/05/03 03:18:20;;;;;;;4.10;3.08;;;3.00;99.90;;;;;;10411395;28;20062;-60
2021/05/03 03:23:21;;;;;;;5.85;3.08;;;3.00;99.90;;;;;;10409367;28;20558;-59
2021/05/03 03:28:22;;;;;;;6.82;4.00;;;3.00;99.90;;;;;;10411471;28;20701;-59
2021/05/03 03:33:23;;;;;;;4.88;3.00;;;2.90;99.90;;;;;;10410759;28;20044;-60
2021/05/03 03:38:24;;;;;;;4.93;3.78;;;2.90;99.90;;;;;;10408875;28;20052;-59
2021/05/03 03:43:26;;;;;;;7.32;3.38;;;2.90;99.90;;;;;;10413306;28;20057;-59
2021/05/03 03:48:27;;;;;;;6.18;2.95;;;2.80;99.90;;;;;;10407446;28;20050;-59
2021/05/03 03:53:28;;;;;;;5.57;3.53;;;2.70;99.90;;;;;;10411152;28;20057;-59
2021/05/03 03:58:29;;;;;;;4.72;2.88;;;2.70;99.90;;;;;;10406115;28;20081;-61
2021/05/03 04:03:30;;;;;;;9.70;5.07;;;2.60;99.90;;;;;;10408507;28;20057;-62
2021/05/03 04:08:46;;;;;;;5.63;3.53;;;2.50;99.90;;;;;;10410832;28;20558;-61
2021/05/03 04:14:09;;;;;;;5.07;3.47;;;2.60;99.90;;;;;;10404369;28;20045;-62
2021/05/03 04:29:29;;;;;;;5.68;3.45;;;2.50;99.90;;;;;;10411971;28;20647;-61
2021/05/03 04:34:30;;;;;;;9.05;3.63;;;2.60;99.90;;;;;;10407522;28;20054;-62
2021/05/03 04:39:31;;;;;;;11.77;3.78;;;2.60;99.90;;;;;;10411944;28;20111;-61
2021/05/03 04:44:32;;;;;;;6.47;4.25;;;2.60;99.90;;;;;;10410134;28;20118;-61
2021/05/03 04:49:34;;;;;;;5.68;3.50;;;2.70;99.90;;;;;;10408017;28;23861;-61
2021/05/03 04:54:35;;;;;;;5.63;3.35;;;2.80;99.90;;;;;;10397674;28;20454;-61
2021/05/03 04:59:36;;;;;;;4.28;3.58;;;2.90;99.90;;;;;;10412358;28;20045;-61
2021/05/03 05:04:38;;;;;;;6.47;3.70;;;3.00;99.90;;;;;;10408207;28;20042;-61
2021/05/03 05:09:39;;;;;;;5.32;4.47;;;3.10;99.90;;;;;;10407250;28;20044;-61
2021/05/03 05:14:40;;;;;;;9.13;3.83;;;3.30;99.90;;;;;;10404777;28;20096;-62
2021/05/03 05:19:41;;;;;;;6.60;4.10;;;3.40;99.90;;;;;;10405215;28;20052;-61
2021/05/03 05:24:43;;;;;;;11.60;4.50;;;3.50;99.90;;;;;;10404401;28;20045;-62
2021/05/03 05:29:44;;;;;;;8.98;5.38;;;3.70;99.90;;;;;;10401297;28;20057;-62
2021/05/03 05:34:47;;;;;;;6.28;4.53;;;4.00;99.90;;;;;;10406786;28;20045;-61
2021/05/03 05:39:49;;;;;;;8.25;5.15;;;4.20;99.90;;;;;;10411454;28;20033;-61
2021/05/03 05:44:50;;;;;;;11.07;5.22;;;4.60;99.90;;;;;;10412646;28;20053;-62
2021/05/03 05:49:51;;;;;;;8.02;5.07;;;4.70;99.90;;;;;;10416873;28;20586;-62
2021/05/03 05:54:53;;;;;;;7.80;4.95;;;4.90;99.90;;;;;;10389354;28;20533;-61
2021/05/03 05:59:54;;;;;;;11.43;4.95;;;5.10;99.90;;;;;;10406294;28;20053;-61
2021/05/03 06:04:56;;;;;;;9.80;5.38;;;5.10;99.90;;;;;;10401473;28;20380;-61
2021/05/03 06:09:57;;;;;;;7.13;4.95;;;5.30;99.90;;;;;;10405124;28;20053;-62
2021/05/03 06:14:58;;;;;;;11.05;5.95;;;5.50;99.90;;;;;;10399971;28;20136;-61
2021/05/03 06:19:59;;;;;;;6.85;4.57;;;5.60;99.90;;;;;;10410732;28;20099;-61
2021/05/03 06:25:01;;;;;;;8.07;5.05;;;5.90;99.90;;;;;;10391943;28;20050;-61
2021/05/03 06:30:04;;;;;;;7.60;4.25;;;6.20;99.90;;;;;;10397744;28;20504;-61
2021/05/03 06:35:06;;;;;;;7.15;4.43;;;6.50;99.90;;;;;;10403714;28;20045;-62
2021/05/03 06:40:08;;;;;;;9.13;4.88;;;6.70;99.90;;;;;;10407668;28;20107;-62
2021/05/03 06:45:11;;;;;;;7.68;5.85;;;6.70;99.90;;;;;;10402118;28;20053;-62
2021/05/03 06:50:13;;;;;;;9.10;5.57;;;6.80;99.90;;;;;;10404801;28;20055;-62
2021/05/03 06:55:15;;;;;;;9.00;5.65;;;7.00;99.90;;;;;;10408340;28;20072;-62
2021/05/03 07:00:17;;;;;;;6.30;4.25;;;7.20;99.90;;;;;;10403555;28;20057;-62
2021/05/03 07:05:18;;;;;;;7.82;4.63;;;7.40;99.90;;;;;;10401847;28;20044;-62
2021/05/03 07:10:19;;;;;;;9.05;5.30;;;7.50;99.90;;;;;;10405722;28;20057;-62
2021/05/03 07:15:24;;;;;;;10.85;4.95;;;7.90;99.90;;;;;;10405495;28;20081;-62
2021/05/03 07:20:25;;;;;;;6.28;4.70;;;8.10;97.90;;;;;;10402512;28;20084;-62
2021/05/03 07:25:26;;;;;;;7.93;3.75;;;8.40;95.90;;;;;;10395802;28;20119;-62
2021/05/03 07:30:28;;;;;;;8.13;4.00;;;8.60;95.50;;;;;;10405153;28;20045;-62
2021/05/03 07:35:29;;;;;;;8.45;4.07;;;8.90;94.60;;;;;;10406105;28;20556;-63
2021/05/03 07:40:30;;;;;;;7.40;3.50;;;9.20;91.40;;;;;;10411446;28;20541;-62
2021/05/03 07:45:31;;;;;;;6.20;3.63;;;9.50;90.60;;;;;;10409655;28;20044;-63
2021/05/03 07:50:33;;;;;;;3.75;2.22;;;9.60;87.30;;;;;;10410130;28;20052;-62
2021/05/03 07:55:34;;;;;;;6.53;2.22;;;9.70;81.80;;;;;;10415352;28;20061;-62
2021/05/03 08:00:35;;;;;;;5.35;2.70;;;9.70;76.00;;;;;;10413335;28;20061;-62
2021/05/03 08:05:37;;;;;;;5.35;1.60;;;9.90;75.70;;;;;;10409160;28;20053;-63
2021/05/03 08:10:38;;;;;;;4.20;1.70;;;10.00;73.70;;;;;;10405746;28;20045;-63
2021/05/03 08:15:45;;;;;;;3.47;2.30;;;10.00;70.50;;;;;;10409747;28;20088;-63
2021/05/03 08:20:46;;;;;;;2.90;2.00;;;10.20;71.20;;;;;;10407291;28;20110;-63
2021/05/03 08:25:52;;;;;;;2.90;1.80;;;10.60;72.80;;;;;;10410581;28;20569;-63
2021/05/03 08:30:54;;;;;;;4.00;1.55;;;10.70;71.30;;;;;;10406437;28;20049;-63
2021/05/03 08:35:56;;;;;;;4.63;1.70;;;10.50;68.50;;;;;;10412550;28;20053;-63
2021/05/03 08:40:59;;;;;;;8.70;1.65;;;10.60;70.60;;;;;;10412568;28;20376;-63
2021/05/03 08:46:00;;;;;;;5.50;1.85;;;10.70;68.70;;;;;;10408008;28;20786;-64
2021/05/03 08:51:39;;;;;;;2.85;1.70;;;10.50;69.50;;;;;;10409850;28;20056;-63
2021/05/03 08:56:30;;;;;;;6.22;2.65;;;10.70;71.30;;;;;;10363448;28;20045;-63
2021/05/03 09:01:31;;;;;;;2.65;2.00;;;10.80;69.40;;;;;;10409305;28;20052;-64
2021/05/03 09:06:33;;;;;;;5.65;1.85;;;11.00;69.00;;;;;;10411228;28;20049;-63
2021/05/03 09:11:35;;;;;;;3.25;1.80;;;11.10;68.20;;;;;;10406805;28;20045;-63
2021/05/03 09:16:51;;;;;;;4.97;1.92;;;11.30;68.80;;;;;;10404494;28;20415;-62
2021/05/03 09:21:54;;;;;;;2.63;1.40;;;11.70;66.50;;;;;;10407735;28;20041;-63
2021/05/03 09:27:02;;;;;;;3.35;1.30;;;11.60;64.10;;;;;;10405527;28;20540;-63
2021/05/03 09:32:14;;;;;;;2.60;1.38;;;11.60;64.70;;;;;;10404827;28;20053;-63
2021/05/03 09:37:34;;;;;;;1.80;1.42;;;11.80;64.80;;;;;;10399915;28;20049;-62
2021/05/03 09:42:55;;;;;;;5.97;1.85;;;12.30;63.20;;;;;;10406584;28;20535;-62
2021/05/03 09:47:58;;;;;;;3.90;2.03;;;12.00;61.20;;;;;;10353860;28;20527;-62
2021/05/03 09:53:01;;;;;;;4.22;1.67;;;12.40;61.10;;;;;;10405759;28;20052;-62
2021/05/03 09:58:06;;;;;;;2.17;1.35;;;12.40;58.90;;;;;;10409267;28;20088;-63
2021/05/03 10:03:43;;;;;;;1.88;1.38;;;12.60;60.50;;;;;;10405394;28;20049;-62
2021/05/03 10:08:49;;;;;;;4.88;1.83;;;12.60;57.80;;;;;;10283856;28;20623;-62
2021/05/03 10:13:51;;;;;;;1.98;1.75;;;12.60;57.40;;;;;;10408303;28;20111;-63
2021/05/03 10:18:52;;;;;;;5.28;1.50;;;12.80;57.10;;;;;;10405908;28;20084;-62
2021/05/03 10:23:55;;;;;;;2.95;1.63;;;13.30;55.40;;;;;;10406957;28;20076;-62
2021/05/03 10:29:01;;;;;;;2.63;1.10;;;12.90;55.00;;;;;;10403059;28;20057;-62
2021/05/03 10:34:04;;;;;;;3.55;1.08;;;13.00;54.80;;;;;;10401547;28;20045;-62
2021/05/03 10:39:30;;;;;;;1.20;0.80;;;13.50;53.60;;;;;;10407874;28;20118;-62
2021/05/03 10:44:31;;;;;;;5.78;1.30;;;13.90;50.90;;;;;;10355159;28;20546;-62
2021/05/03 10:49:46;;;;;;;1.05;0.93;;;13.50;50.70;;;;;;10405068;28;20053;-62
2021/05/03 10:54:52;;;;;;;1.52;0.73;;;13.90;48.70;;;;;;10400534;28;20057;-62
2021/05/03 10:59:57;;;;;;;2.67;0.90;;;14.50;48.60;;;;;;10406619;28;20049;-62
2021/05/03 11:05:24;;;;;;;1.75;0.68;;;14.30;47.40;;;;;;10411044;28;20438;-63
2021/05/03 11:10:54;;;;;;;1.40;0.90;;;15.50;47.00;;;;;;10423660;28;20056;-63
2021/05/03 11:15:55;;;;;;;2.00;1.25;;;15.40;45.30;;;;;;10343770;28;20045;-62
2021/05/03 11:20:59;;;;;;;3.08;1.10;;;15.10;48.30;;;;;;10415493;28;20056;-62
2021/05/03 11:26:01;;;;;;;2.63;0.90;;;14.80;48.90;;;;;;10418594;28;20194;-62
2021/05/03 11:31:18;;;;;;;3.47;1.10;;;15.40;46.70;;;;;;10408439;28;20383;-63
2021/05/03 11:36:24;;;;;;;7.10;2.13;;;15.10;46.10;;;;;;10411989;28;20790;-63
2021/05/03 11:46:45;;;;;;;4.22;1.80;;;14.80;47.10;;;;;;10406811;28;20143;-63
2021/05/03 11:51:49;;;;;;;3.83;1.73;;;14.70;46.90;;;;;;10408739;28;20049;-60
2021/05/03 11:56:55;;;;;;;3.42;1.70;;;15.10;48.50;;;;;;10406071;28;20118;-61
2021/05/03 12:02:05;;;;;;;1.97;1.47;;;14.90;48.70;;;;;;10406207;28;20079;-61
2021/05/03 12:07:25;;;;;;;3.30;1.40;;;14.50;49.20;;;;;;10410119;28;20056;-61
2021/05/03 12:12:33;;;;;;;3.67;1.40;;;14.40;48.70;;;;;;10361925;28;20058;-61
2021/05/03 12:17:35;;;;;;;3.55;1.10;;;14.00;48.90;;;;;;10409597;28;20121;-60
2021/05/03 12:22:38;;;;;;;2.42;1.00;;;14.10;49.20;;;;;;10412788;28;20114;-61
2021/05/03 12:27:39;;;;;;;5.85;1.65;;;14.60;48.30;;;;;;10411972;28;20045;-61
2021/05/03 12:32:42;;;;;;;2.05;1.08;;;14.50;47.90;;;;;;10406316;28;20045;-60
2021/05/03 12:37:44;;;;;;;2.13;0.98;;;15.60;49.60;;;;;;10402096;28;20053;-60
2021/05/03 12:42:53;;;;;;;3.42;1.30;;;15.90;48.50;;;;;;10405628;28;20045;-61
2021/05/03 12:48:04;;;;;;;4.30;1.00;;;14.60;49.00;;;;;;10405282;28;20045;-61
2021/05/03 12:58:27;;;;;;;2.03;1.00;;;15.50;47.70;;;;;;10407145;28;20369;-60
2021/05/03 13:08:58;;;;;;;1.00;0.90;;;15.80;48.30;;;;;;10406957;28;20379;-60
2021/05/03 13:25:11;;;;;;;1.67;0.60;;;16.80;43.20;;;;;;10403440;28;20103;-60
2021/05/03 13:30:17;;;;;;;2.78;0.60;;;15.60;44.20;;;;;;10405957;28;20068;-60
2021/05/03 13:35:19;;;;;;;1.37;0.90;;;15.40;45.20;;;;;;10404729;28;20102;-61
2021/05/03 13:40:21;;;;;;;3.15;0.65;;;15.30;46.00;;;;;;10407771;28;20081;-61
2021/05/03 13:45:23;;;;;;;2.67;0.77;;;15.30;46.10;;;;;;10407438;28;20499;-60
2021/05/03 13:50:24;;;;;;;4.03;1.08;;;16.20;44.40;;;;;;10407780;28;20052;-60
2021/05/03 13:55:26;;;;;;;2.22;0.80;;;16.40;46.50;;;;;;10404200;28;20054;-61
2021/05/03 14:00:27;;;;;;;1.02;0.70;;;15.90;45.20;;;;;;10409714;28;20054;-60
2021/05/03 14:05:28;;;;;;;1.13;0.70;;;15.70;44.30;;;;;;10403435;28;20049;-61
2021/05/03 14:10:31;;;;;;;2.63;0.98;;;15.10;45.80;;;;;;10411054;28;20045;-61
2021/05/03 14:15:34;;;;;;;2.35;0.77;;;15.90;44.70;;;;;;10406960;28;20127;-61
2021/05/03 14:20:35;;;;;;;1.38;0.70;;;15.90;45.40;;;;;;10406882;28;20044;-61
2021/05/03 14:25:37;;;;;;;1.85;0.60;;;15.40;45.50;;;;;;10401261;28;20136;-61
2021/05/03 14:30:47;;;;;;;3.83;0.65;;;15.70;45.40;;;;;;10405183;28;20053;-61
2021/05/03 14:35:49;;;;;;;2.22;0.80;;;15.90;44.80;;;;;;10399932;28;20041;-61
2021/05/03 14:40:50;;;;;;;2.40;1.20;;;16.60;42.90;;;;;;10403811;28;20049;-61
2021/05/03 14:46:03;;;;;;;0.70;0.65;;;16.60;42.80;;;;;;10412049;28;20441;-61
2021/05/03 14:51:17;;;;;;;1.10;0.70;;;15.80;43.20;;;;;;10413964;28;20434;-61
2021/05/03 14:56:19;;;;;;;3.00;0.60;;;16.10;44.20;;;;;;10411976;28;20069;-61
2021/05/03 15:01:21;;;;;;;1.25;0.57;;;15.50;43.90;;;;;;10411341;28;20445;-60
2021/05/03 15:06:23;;;;;;;4.70;0.80;;;15.20;45.40;;;;;;10418663;28;20057;-61
2021/05/03 15:11:25;;;;;;;1.67;0.80;;;15.10;46.40;;;;;;10415229;28;20060;-61
2021/05/03 15:16:39;;;;;;;0.88;0.60;;;15.30;46.10;;;;;;10410176;28;20072;-61
2021/05/03 15:21:40;;;;;;;1.60;1.17;;;15.70;46.10;;;;;;10411877;28;20055;-60
2021/05/03 15:26:50;;;;;;;3.72;0.90;;;15.90;45.40;;;;;;10407219;28;20103;-61
2021/05/03 15:36:54;;;;;;;1.20;0.50;;;15.60;45.10;;;;;;10410647;28;20059;-61
2021/05/03 15:41:55;;;;;;;1.63;0.70;;;15.60;44.90;;;;;;10406910;28;20096;-61
2021/05/03 15:46:56;;;;;;;1.08;0.60;;;15.70;45.90;;;;;;10402171;28;20087;-60
2021/05/03 15:51:58;;;;;;;2.90;0.80;;;15.70;46.10;;;;;;10409424;28;20049;-61
2021/05/03 15:56:59;;;;;;;1.90;0.70;;;15.60;46.90;;;;;;10403717;28;20049;-61
2021/05/03 16:02:02;;;;;;;1.92;0.70;;;15.40;46.60;;;;;;10417793;28;20609;-60
2021/05/03 16:07:03;;;;;;;2.45;0.60;;;15.30;46.70;;;;;;10426418;28;20106;-61
2021/05/03 16:12:05;;;;;;;1.67;0.68;;;15.00;46.80;;;;;;10430171;28;20041;-60
2021/05/03 16:17:06;;;;;;;1.33;0.77;;;15.30;48.10;;;;;;10431317;28;20060;-61
2021/05/03 16:22:08;;;;;;;1.55;0.90;;;15.00;47.00;;;;;;10427824;28;20044;-61
2021/05/03 16:27:11;;;;;;;1.75;0.98;;;14.90;47.50;;;;;;10417838;28;20052;-61
2021/05/03 16:32:13;;;;;;;2.67;1.05;;;15.60;47.00;;;;;;10410051;28;20415;-62
2021/05/03 16:37:15;;;;;;;1.20;0.63;;;15.90;46.80;;;;;;10404667;28;20523;-62
2021/05/03 16:42:23;;;;;;;3.28;0.63;;;15.40;46.50;;;;;;10405975;28;20080;-61
2021/05/03 16:47:25;;;;;;;3.70;0.65;;;15.50;46.30;;;;;;10408188;28;20064;-61
2021/05/03 16:52:27;;;;;;;1.90;1.10;;;14.90;47.30;;;;;;10410870;28;20549;-61
2021/05/03 16:57:28;;;;;;;1.38;0.75;;;14.70;47.80;;;;;;10403711;28;20053;-61
2021/05/03 17:02:30;;;;;;;2.13;0.82;;;15.20;47.70;;;;;;10408153;28;20045;-62
2021/05/03 17:07:31;;;;;;;1.67;0.70;;;15.10;48.10;;;;;;10406168;28;20053;-62
2021/05/03 17:12:32;;;;;;;2.78;0.88;;;15.10;47.70;;;;;;10403892;28;20102;-62
2021/05/03 17:17:36;;;;;;;1.20;0.75;;;14.60;48.70;;;;;;10410417;28;20085;-61
2021/05/03 17:22:38;;;;;;;0.93;0.73;;;14.70;49.30;;;;;;10403328;28;20056;-61
2021/05/03 17:27:40;;;;;;;2.60;1.08;;;14.50;49.70;;;;;;10404681;28;20048;-61
2021/05/03 17:32:41;;;;;;;3.60;1.00;;;14.40;50.20;;;;;;10408464;28;20053;-61
2021/05/03 17:37:44;;;;;;;3.53;1.38;;;15.00;48.90;;;;;;10404272;28;20054;-62
2021/05/03 17:42:45;;;;;;;2.63;0.75;;;14.90;48.70;;;;;;10402218;28;20216;-61
2021/05/03 17:47:46;;;;;;;1.45;0.60;;;14.70;48.90;;;;;;10405020;28;20049;-61
2021/05/03 17:52:51;;;;;;;2.35;1.02;;;14.50;49.70;;;;;;10400437;28;20056;-60
2021/05/03 17:57:53;;;;;;;2.53;0.80;;;14.40;49.90;;;;;;10407580;28;20102;-61
2021/05/03 18:02:54;;;;;;;2.20;0.80;;;14.30;50.60;;;;;;10402040;28;20052;-61
2021/05/03 18:07:55;;;;;;;2.65;0.80;;;14.20;50.80;;;;;;10411207;28;20443;-62
2021/05/03 18:12:57;;;;;;;1.30;0.77;;;13.90;51.80;;;;;;10405485;28;20088;-61
2021/05/03 18:17:59;;;;;;;6.05;0.98;;;13.70;52.30;;;;;;10409058;28;20049;-61
2021/05/03 18:23:00;;;;;;;2.72;0.85;;;13.60;53.40;;;;;;10405184;28;20500;-62
2021/05/03 18:28:01;;;;;;;1.20;1.10;;;13.50;53.00;;;;;;10404871;28;20042;-61
2021/05/03 18:33:03;;;;;;;1.25;0.68;;;13.40;53.30;;;;;;10409442;28;20464;-61
2021/05/03 18:38:04;;;;;;;1.55;0.80;;;13.20;53.70;;;;;;10407228;28;20110;-61
2021/05/03 18:43:06;;;;;;;9.27;2.75;;;13.10;54.50;;;;;;10402401;28;20111;-61
2021/05/03 18:48:07;;;;;;;3.25;0.90;;;13.00;54.60;;;;;;10400808;28;20488;-62
2021/05/03 18:53:08;;;;;;;2.33;0.70;;;13.00;55.00;;;;;;10408685;28;20053;-61
2021/05/03 18:58:09;;;;;;;4.13;0.75;;;12.80;56.20;;;;;;10411138;28;20053;-60
2021/05/03 19:03:11;;;;;;;1.40;0.98;;;12.60;57.10;;;;;;10411841;28;20065;-60
2021/05/03 19:08:12;;;;;;;2.03;0.80;;;12.50;57.40;;;;;;10408638;28;20054;-60
2021/05/03 19:13:13;;;;;;;7.60;1.00;;;12.40;57.90;;;;;;10405093;28;20083;-60
2021/05/03 19:18:15;;;;;;;1.35;0.80;;;12.30;57.60;;;;;;10406124;28;20099;-59
2021/05/03 19:23:16;;;;;;;1.83;0.93;;;12.20;57.20;;;;;;10405544;28;20057;-59
2021/05/03 19:28:18;;;;;;;3.47;1.00;;;12.20;58.10;;;;;;10404767;28;20049;-60
2021/05/03 19:33:20;;;;;;;1.70;0.85;;;12.10;58.50;;;;;;10407046;28;20061;-60
2021/05/03 19:38:23;;;;;;;2.45;0.90;;;12.00;58.90;;;;;;10413542;28;20064;-59
2021/05/03 19:43:25;;;;;;;2.03;1.20;;;11.90;59.70;;;;;;10403986;28;20084;-59
2021/05/03 19:48:26;;;;;;;2.47;0.90;;;11.80;59.30;;;;;;10396942;28;20064;-60
2021/05/03 20:04:10;;;;;;;4.80;2.03;;;11.30;62.90;;;;;;10394858;28;20132;-60
2021/05/03 20:09:11;;;;;;;5.22;1.48;;;11.20;63.30;;;;;;10396987;28;20118;-60
2021/05/03 20:14:13;;;;;;;3.72;1.58;;;11.00;64.60;;;;;;10408982;28;20538;-59
2021/05/03 20:19:14;;;;;;;3.83;1.70;;;10.90;63.80;;;;;;10396741;28;20068;-59
2021/05/03 20:24:15;;;;;;;4.45;2.20;;;10.80;63.40;;;;;;10398059;28;20068;-58
2021/05/03 20:29:17;;;;;;;3.17;1.35;;;10.80;65.70;;;;;;10395655;28;20517;-61
2021/05/03 20:34:29;;;;;;;2.50;1.67;;;10.50;68.60;;;;;;10391759;28;20055;-60
2021/05/03 20:44:50;;;;;;;4.03;1.20;;;10.10;71.50;;;;;;10406302;28;20498;-60
2021/05/03 20:49:52;;;;;;;3.13;1.27;;;10.00;72.20;;;;;;10406012;28;20053;-60
2021/05/03 20:54:53;;;;;;;5.10;1.95;;;9.80;73.70;;;;;;10409796;28;20052;-60
2021/05/03 20:59:55;;;;;;;4.70;2.25;;;9.60;75.30;;;;;;10408187;28;20045;-60
2021/05/03 21:04:56;;;;;;;7.38;1.90;;;9.50;77.10;;;;;;10406766;28;20053;-60
2021/05/03 21:09:57;;;;;;;2.92;1.70;;;9.20;78.70;;;;;;10407609;28;20080;-59
2021/05/03 21:14:58;;;;;;;2.63;1.70;;;9.10;80.00;;;;;;10403390;28;20488;-58
2021/05/03 21:19:59;;;;;;;6.78;2.00;;;8.90;81.60;;;;;;10407556;28;20053;-59
2021/05/03 21:25:01;;;;;;;2.72;2.03;;;8.90;83.60;;;;;;10407235;28;20045;-59
2021/05/03 21:30:05;;;;;;;2.63;1.98;;;8.80;86.40;;;;;;10403005;28;20446;-58
2021/05/03 21:35:07;;;;;;;3.13;1.90;;;8.90;87.80;;;;;;10404789;28;20057;-59
2021/05/03 21:40:09;;;;;;;5.10;2.38;;;8.90;89.70;;;;;;10407055;28;20111;-58
2021/05/03 21:45:11;;;;;;;4.07;2.20;;;8.90;90.30;;;;;;10401701;28;20049;-59
2021/05/03 21:50:13;;;;;;;4.57;3.80;;;8.80;90.80;;;;;;10407407;28;20510;-59
2021/05/03 21:55:14;;;;;;;2.60;2.08;;;8.80;91.40;;;;;;10406169;28;20049;-60
2021/05/03 22:00:16;;;;;;;5.60;2.90;;;8.70;91.50;;;;;;10396332;28;20158;-59
2021/05/03 22:05:17;;;;;;;5.13;4.38;;;8.60;91.20;;;;;;10101163;28;20521;-60
2021/05/03 22:10:18;;;;;;;2.53;1.42;;;8.60;92.30;;;;;;10259123;28;20045;-59
2021/05/03 22:15:21;;;;;;;3.15;2.00;;;8.40;92.20;;;;;;10404188;28;20057;-59
2021/05/03 22:25:52;;;;;;;6.68;1.83;;;8.40;94.10;;;;;;10406379;28;20057;-58
2021/05/03 22:30:53;;;;;;;5.97;2.10;;;8.40;94.90;;;;;;10400886;28;20060;-61
2021/05/03 22:35:59;;;;;;;4.63;1.92;;;8.40;95.50;;;;;;10401293;28;20049;-58
2021/05/03 22:57:38;;;;;;;3.65;2.08;;;8.40;97.00;;;;;;10414070;28;20107;-59
2021/05/03 23:18:39;;;;;;;4.20;2.10;;;8.10;99.90;;;;;;10414619;28;20045;-59
2021/05/03 23:23:40;;;;;;;4.35;2.03;;;8.10;99.90;;;;;;10408763;28;20423;-58
2021/05/03 23:28:43;;;;;;;2.65;1.80;;;8.10;99.90;;;;;;10412303;28;20111;-58
2021/05/03 23:33:44;;;;;;;4.95;1.92;;;8.10;99.90;;;;;;10416224;28;20100;-60
2021/05/03 23:38:45;;;;;;;5.22;2.53;;;8.10;99.90;;;;;;10406803;28;20053;-59
2021/05/03 23:43:47;;;;;;;5.72;2.08;;;8.10;99.90;;;;;;10414247;28;20051;-59
2021/05/03 23:48:48;;;;;;;4.78;2.42;;;8.10;95.30;;;;;;10411051;28;20136;-59
2021/05/03 23:53:50;;;;;;;5.07;2.72;;;8.20;94.60;;;;;;10411501;28;20539;-60
2021/05/03 23:58:51;;;;;;;3.10;2.03;;;8.10;95.50;;;;;;10410005;28;20041;-59
